Time;durP1;ratioP1;P1;durP2;ratioP2;P2;SDS_P1;SDS_P2;PMS_P1;PMS_P2;Temp;Humidity;BMP_temperature;BMP_pressure;BME280_temperature;BME280_humidity;BME280_pressure;Samples;Min_cycle;Max_cycle;Signal;HPM_P1;HPM_P2
2024/04/04 00:01:49;;;;;;;1.40;1.00;;;;;;;9.53;65.72;98245.27;104979;1270;61174;-26
2024/04/04 00:04:16;;;;;;;2.20;1.10;;;;;;;9.65;64.88;98248.68;104805;1267;61142;-26
2024/04/04 00:06:44;;;;;;;3.40;1.10;;;;;;;9.77;64.45;98251.58;104711;1275;73006;-25
2024/04/04 00:09:13;;;;;;;3.10;1.70;;;;;;;9.38;65.71;98250.07;104805;1272;74294;-25
2024/04/04 00:11:42;;;;;;;1.90;1.10;;;;;;;9.13;66.57;98250.52;104785;1274;72756;-27
2024/04/04 00:14:09;;;;;;;2.40;1.30;;;;;;;9.05;66.66;98253.14;101393;1270;61161;-25
2024/04/04 00:16:37;;;;;;;1.70;1.20;;;;;;;9.00;66.49;98256.81;105146;1269;71851;-25
2024/04/04 00:19:05;;;;;;;2.60;1.60;;;;;;;8.84;66.97;98263.22;104850;1271;73327;-25
2024/04/04 00:21:32;;;;;;;4.50;1.30;;;;;;;8.51;68.39;98266.91;104867;1266;72742;-25
2024/04/04 00:31:44;;;;;;;2.50;1.20;;;;;;;8.84;64.67;98286.91;102597;1293;600178;-25
2024/04/04 00:34:11;;;;;;;1.20;1.10;;;;;;;8.24;63.60;98293.55;105026;1269;61142;-27
2024/04/04 00:36:39;;;;;;;1.80;1.10;;;;;;;7.98;63.11;98298.77;104862;1270;61132;-28
2024/04/04 00:46:51;;;;;;;1.20;0.80;;;;;;;7.14;62.25;98311.36;102577;1294;600796;-25
2024/04/04 00:49:19;;;;;;;1.50;0.90;;;;;;;7.03;62.54;98313.95;104809;1267;61094;-28
2024/04/04 00:51:47;;;;;;;1.10;0.70;;;;;;;7.21;62.08;98313.72;104825;1266;61171;-28
2024/04/04 00:54:15;;;;;;;1.00;0.80;;;;;;;7.49;60.73;98313.79;104800;1275;73043;-28
2024/04/04 00:56:43;;;;;;;0.80;0.80;;;;;;;7.56;60.44;98319.29;104811;1271;73655;-28
2024/04/04 00:59:12;;;;;;;0.90;0.70;;;;;;;7.38;60.83;98321.04;104822;1270;72688;-28
2024/04/04 01:01:40;;;;;;;0.80;0.70;;;;;;;7.18;61.81;98320.36;101561;1263;61264;-29
2024/04/04 01:04:09;;;;;;;0.90;0.70;;;;;;;7.13;62.32;98324.92;105113;1263;72984;-28
2024/04/04 01:06:38;;;;;;;1.40;1.10;;;;;;;6.94;63.12;98331.25;105380;1263;72753;-28
2024/04/04 01:09:06;;;;;;;1.30;0.90;;;;;;;6.41;64.68;98320.98;105345;1260;71531;-27
2024/04/04 01:11:33;;;;;;;0.70;0.70;;;;;;;6.58;64.30;98329.64;105473;1262;61158;-28
2024/04/04 01:14:01;;;;;;;1.50;1.10;;;;;;;7.06;62.09;98330.66;105503;1262;61185;-28
2024/04/04 01:16:28;;;;;;;1.30;0.90;;;;;;;7.18;60.69;98344.77;105544;1261;73845;-28
2024/04/04 01:18:56;;;;;;;1.30;0.80;;;;;;;6.91;60.94;98337.45;105554;1257;74303;-29
2024/04/04 01:21:24;;;;;;;1.50;0.70;;;;;;;6.93;61.27;98350.79;105491;1256;70414;-28
2024/04/04 01:23:52;;;;;;;1.50;0.80;;;;;;;6.80;61.46;98350.27;105575;1260;61115;-28
2024/04/04 01:26:19;;;;;;;3.50;0.90;;;;;;;6.77;61.68;98356.52;105481;1262;61119;-28
2024/04/04 01:28:47;;;;;;;0.50;0.50;;;;;;;6.60;61.71;98351.59;105537;1257;72364;-28
2024/04/04 01:31:14;;;;;;;0.70;0.70;;;;;;;6.32;62.11;98351.89;105599;1261;74310;-28
2024/04/04 01:33:42;;;;;;;1.10;0.70;;;;;;;6.32;62.27;98354.31;105568;1261;70400;-29
2024/04/04 01:36:10;;;;;;;2.00;1.10;;;;;;;6.58;61.23;98350.70;105526;1262;61083;-28
2024/04/04 01:38:37;;;;;;;1.00;0.80;;;;;;;6.98;59.82;98347.48;105521;1261;61148;-28
2024/04/04 01:41:05;;;;;;;1.00;0.70;;;;;;;6.90;59.81;98359.96;105603;1256;73814;-28
2024/04/04 01:43:33;;;;;;;1.10;0.80;;;;;;;6.90;59.70;98363.77;105448;1263;74312;-28
2024/04/04 01:46:01;;;;;;;1.50;0.80;;;;;;;6.74;60.12;98364.65;105568;1262;71409;-30
2024/04/04 01:48:29;;;;;;;0.90;0.90;;;;;;;6.50;60.46;98356.98;105596;1257;61106;-28
2024/04/04 01:58:44;;;;;;;1.50;0.90;;;;;;;6.10;62.33;98384.96;102521;1292;600310;-26
2024/04/04 02:01:12;;;;;;;2.30;0.90;;;;;;;6.16;62.25;98389.29;104758;1272;61062;-27
2024/04/04 02:03:39;;;;;;;1.10;1.00;;;;;;;6.73;60.49;98395.63;104773;1272;61260;-28
2024/04/04 02:13:43;;;;;;;0.80;0.60;;;;;;;6.67;60.86;98396.57;102597;1293;600110;-26
2024/04/04 02:16:11;;;;;;;1.40;0.70;;;;;;;6.58;60.84;98399.13;105015;1267;61162;-26
2024/04/04 02:18:38;;;;;;;0.80;0.80;;;;;;;6.48;60.96;98398.51;104842;1265;61247;-26
2024/04/04 02:21:06;;;;;;;0.90;0.60;;;;;;;6.30;61.72;98399.52;104851;1267;73031;-26
2024/04/04 02:23:34;;;;;;;3.10;1.00;;;;;;;6.20;62.17;98406.76;104876;1267;74278;-26
2024/04/04 02:26:01;;;;;;;0.60;0.60;;;;;;;6.00;63.07;98410.13;104982;1267;71858;-26
2024/04/04 02:28:29;;;;;;;0.60;0.50;;;;;;;6.54;62.17;98410.85;101730;1264;4629841;-28
2024/04/04 02:30:57;;;;;;;2.60;0.70;;;;;;;7.14;60.46;98407.16;105160;1269;61221;-28
2024/04/04 02:33:24;;;;;;;1.00;0.70;;;;;;;7.13;60.18;98403.48;105175;1268;72954;-28
2024/04/04 02:35:56;;;;;;;1.20;0.80;;;;;;;6.84;60.96;98403.73;105147;1269;74325;-28
2024/04/04 02:38:24;;;;;;;0.50;0.50;;;;;;;6.71;61.17;98402.98;104948;1267;71679;-29
2024/04/04 02:48:30;;;;;;;1.60;0.60;;;;;;;6.18;62.96;98406.95;102546;1292;600252;-25
2024/04/04 02:50:58;;;;;;;1.00;0.90;;;;;;;5.84;63.88;98405.02;104771;1268;61148;-26
2024/04/04 02:53:26;;;;;;;1.10;0.90;;;;;;;6.28;62.59;98407.23;104776;1273;61186;-25
2024/04/04 02:55:58;;;;;;;2.70;1.00;;;;;;;6.54;61.54;98416.70;104691;1270;71844;-27
2024/04/04 02:58:25;;;;;;;1.00;0.80;;;;;;;6.47;61.52;98418.96;104693;1266;74335;-28
2024/04/04 03:01:04;;;;;;;0.60;0.50;;;;;;;6.13;62.46;98421.61;104068;1269;4695830;-29
2024/04/04 03:03:32;;;;;;;2.80;0.90;;;;;;;6.03;62.72;98419.91;104835;1266;72742;-28
2024/04/04 03:05:59;;;;;;;1.00;0.70;;;;;;;5.77;63.51;98427.27;104865;1265;61139;-28
2024/04/04 03:08:27;;;;;;;1.30;0.80;;;;;;;5.58;63.71;98427.54;104796;1268;61232;-28
2024/04/04 03:10:55;;;;;;;1.10;0.80;;;;;;;5.43;64.27;98428.05;104930;1264;73059;-28
2024/04/04 03:13:22;;;;;;;1.30;1.00;;;;;;;5.68;63.74;98427.86;104774;1266;73099;-28
2024/04/04 03:15:56;;;;;;;1.40;1.10;;;;;;;6.07;61.86;98423.95;105031;1264;71401;-28
2024/04/04 03:18:24;;;;;;;1.60;1.20;;;;;;;5.95;61.99;98427.98;104846;1266;61061;-28
2024/04/04 03:20:52;;;;;;;1.70;1.20;;;;;;;5.97;61.73;98433.77;108659;1264;58790;-27
2024/04/04 03:23:19;;;;;;;2.10;0.90;;;;;;;5.66;62.57;98431.46;108665;1264;72613;-27
2024/04/04 03:25:47;;;;;;;1.50;1.20;;;;;;;5.65;62.94;98439.44;108663;1263;73054;-27
2024/04/04 03:28:14;;;;;;;1.00;0.70;;;;;;;5.70;62.80;98437.52;108656;1264;72764;-27
2024/04/04 03:30:41;;;;;;;0.60;0.60;;;;;;;5.49;63.77;98443.98;108822;1260;58735;-27
2024/04/04 03:33:09;;;;;;;1.20;1.00;;;;;;;5.37;64.09;98447.58;108940;1260;58728;-27
2024/04/04 03:35:38;;;;;;;1.90;1.00;;;;;;;5.61;63.58;98444.35;108931;1260;73823;-27
2024/04/04 03:38:05;;;;;;;1.30;0.90;;;;;;;6.02;62.18;98447.88;108925;1260;74275;-27
2024/04/04 03:40:33;;;;;;;1.50;1.00;;;;;;;6.18;61.02;98447.73;108827;1260;71419;-27
2024/04/04 03:43:02;;;;;;;1.70;1.00;;;;;;;6.18;60.95;98444.83;108924;1260;58899;-27
2024/04/04 03:45:29;;;;;;;1.90;1.30;;;;;;;5.95;61.28;98445.12;108940;1260;60034;-27
2024/04/04 03:47:57;;;;;;;1.40;1.00;;;;;;;5.68;62.61;98448.70;108897;1260;73823;-27
2024/04/04 03:50:26;;;;;;;1.40;1.10;;;;;;;5.65;62.57;98450.80;108871;1260;73577;-27
2024/04/04 03:52:55;;;;;;;1.40;1.10;;;;;;;5.45;63.04;98446.73;108759;1260;72820;-27
2024/04/04 03:55:23;;;;;;;5.00;1.10;;;;;;;5.32;63.35;98448.77;108927;1261;58990;-27
2024/04/04 03:57:50;;;;;;;0.50;0.50;;;;;;;5.08;64.53;98459.04;108924;1260;59182;-27
2024/04/04 04:00:17;;;;;;;1.90;0.90;;;;;;;5.74;62.54;98457.92;108855;1260;73860;-27
2024/04/04 04:02:46;;;;;;;1.20;1.00;;;;;;;6.05;61.31;98459.03;108888;1261;74327;-27
2024/04/04 04:05:14;;;;;;;1.40;1.00;;;;;;;6.15;60.94;98465.23;108855;1260;71756;-27
2024/04/04 04:07:41;;;;;;;1.40;1.10;;;;;;;6.07;60.92;98471.49;108870;1260;58879;-28
2024/04/04 04:10:09;;;;;;;1.90;0.90;;;;;;;5.80;62.15;98474.55;108837;1260;58734;-28
2024/04/04 04:12:37;;;;;;;1.20;0.90;;;;;;;5.75;62.54;98474.57;108825;1260;72555;-27
2024/04/04 04:15:05;;;;;;;1.90;1.10;;;;;;;5.67;63.08;98478.23;108802;1260;74564;-27
2024/04/04 04:17:32;;;;;;;1.40;0.90;;;;;;;5.69;63.32;98486.90;108815;1260;71403;-27
2024/04/04 04:20:00;;;;;;;1.00;0.90;;;;;;;5.71;63.60;98491.89;108805;1260;58777;-27
2024/04/04 04:22:27;;;;;;;1.10;0.80;;;;;;;5.60;63.74;98497.30;108828;1260;58781;-27
2024/04/04 04:24:55;;;;;;;1.60;0.90;;;;;;;5.71;63.81;98503.94;108889;1260;73854;-27
2024/04/04 04:27:22;;;;;;;1.60;0.90;;;;;;;6.35;61.84;98500.30;108816;1260;74032;-27
2024/04/04 04:29:50;;;;;;;1.10;1.00;;;;;;;6.59;60.72;98508.57;108824;1260;72663;-27
2024/04/04 04:32:17;;;;;;;1.30;1.00;;;;;;;6.48;61.19;98512.66;108873;1260;60093;-27
2024/04/04 04:34:45;;;;;;;1.70;1.40;;;;;;;6.36;61.64;98513.39;108815;1261;58733;-27
2024/04/04 04:37:12;;;;;;;0.90;0.80;;;;;;;6.27;62.11;98517.10;108833;1260;73854;-28
2024/04/04 04:39:40;;;;;;;0.90;0.80;;;;;;;6.04;62.79;98518.76;108816;1260;72958;-27
2024/04/04 04:42:07;;;;;;;1.90;1.40;;;;;;;5.84;63.58;98516.67;108790;1260;72745;-27
2024/04/04 04:44:35;;;;;;;1.10;1.00;;;;;;;5.56;64.75;98526.31;108797;1260;58870;-27
2024/04/04 04:47:02;;;;;;;1.50;1.30;;;;;;;5.58;64.94;98532.45;109128;1255;60052;-27
2024/04/04 04:49:30;;;;;;;1.50;1.00;;;;;;;5.57;65.63;98531.13;109118;1256;73804;-28
2024/04/04 04:51:57;;;;;;;1.60;0.90;;;;;;;6.35;63.38;98537.23;109127;1255;74335;-27
2024/04/04 04:54:25;;;;;;;1.60;1.00;;;;;;;6.48;62.20;98534.39;109189;1256;71437;-27
2024/04/04 04:56:52;;;;;;;2.00;1.30;;;;;;;6.12;62.67;98547.63;109174;1255;58763;-27
2024/04/04 04:59:19;;;;;;;1.40;1.20;;;;;;;5.83;63.73;98554.44;109189;1255;60071;-27
2024/04/04 05:01:47;;;;;;;2.50;1.00;;;;;;;5.85;64.48;98554.99;109214;1255;73873;-28
2024/04/04 05:04:14;;;;;;;1.80;1.20;;;;;;;5.77;64.30;98557.99;109096;1255;75414;-27
2024/04/04 05:06:46;;;;;;;1.80;1.50;;;;;;;5.82;64.62;98566.77;109136;1256;74142;-27
2024/04/04 05:09:14;;;;;;;5.50;1.20;;;;;;;5.75;64.66;98569.81;109076;1256;59255;-27
2024/04/04 05:11:42;;;;;;;1.60;1.20;;;;;;;5.73;64.89;98564.59;109118;1256;58754;-27
2024/04/04 05:14:11;;;;;;;1.40;1.10;;;;;;;6.21;64.21;98571.85;109092;1256;72651;-27
2024/04/04 05:16:41;;;;;;;1.40;1.00;;;;;;;6.78;61.95;98567.79;109051;1256;73209;-27
2024/04/04 05:19:09;;;;;;;2.40;1.60;;;;;;;6.62;62.22;98570.98;109055;1256;73060;-27
2024/04/04 05:21:36;;;;;;;1.50;1.20;;;;;;;6.27;63.95;98575.56;109062;1256;58778;-27
2024/04/04 05:24:04;;;;;;;1.70;1.20;;;;;;;6.28;63.91;98579.58;109079;1255;60087;-27
2024/04/04 05:26:31;;;;;;;1.50;1.00;;;;;;;6.37;63.78;98581.73;109086;1256;72870;-27
2024/04/04 05:28:59;;;;;;;1.10;1.00;;;;;;;6.24;63.91;98582.28;109078;1256;74475;-28
2024/04/04 05:31:26;;;;;;;1.30;0.90;;;;;;;6.19;64.01;98574.73;109137;1256;72743;-27
2024/04/04 05:33:54;;;;;;;1.50;1.10;;;;;;;6.13;64.06;98589.33;109135;1256;59240;-27
2024/04/04 05:36:23;;;;;;;1.90;1.20;;;;;;;6.14;64.33;98586.27;109161;1256;58891;-27
2024/04/04 05:38:50;;;;;;;1.10;0.90;;;;;;;6.58;62.03;98586.63;109053;1256;73870;-27
2024/04/04 05:41:17;;;;;;;0.80;0.60;;;;;;;6.82;60.03;98599.23;109166;1256;74211;-27
2024/04/04 05:43:45;;;;;;;1.00;0.80;;;;;;;6.63;58.69;98604.23;109042;1256;72480;-27
2024/04/04 05:46:12;;;;;;;1.30;0.60;;;;;;;6.63;58.47;98607.33;109119;1256;58894;-27
2024/04/04 05:48:40;;;;;;;0.80;0.70;;;;;;;6.62;57.37;98607.86;109092;1256;60015;-27
2024/04/04 05:51:07;;;;;;;0.80;0.60;;;;;;;6.51;57.47;98610.91;109102;1261;73921;-27
2024/04/04 05:53:34;;;;;;;3.10;0.70;;;;;;;6.19;56.94;98609.36;109095;1256;74323;-27
2024/04/04 05:56:02;;;;;;;1.00;0.80;;;;;;;6.28;56.91;98620.77;109044;1256;71622;-28
2024/04/04 05:58:30;;;;;;;0.50;0.50;;;;;;;6.10;56.78;98626.19;109069;1257;59233;-27
2024/04/04 06:00:57;;;;;;;0.60;0.60;;;;;;;6.31;56.26;98624.90;109089;1256;61321;-27
2024/04/04 06:03:25;;;;;;;0.60;0.60;;;;;;;6.06;56.39;98629.94;109102;1256;74718;-27
2024/04/04 06:05:52;;;;;;;0.70;0.60;;;;;;;6.14;56.25;98632.99;109106;1256;76344;-27
2024/04/04 06:08:22;;;;;;;1.10;0.80;;;;;;;6.33;56.58;98634.41;109191;1256;74188;-27
2024/04/04 06:10:49;;;;;;;1.20;0.80;;;;;;;5.95;56.59;98643.44;109011;1263;60295;-27
2024/04/04 06:13:17;;;;;;;1.90;0.70;;;;;;;6.06;56.40;98648.85;109054;1256;61145;-27
2024/04/04 06:15:54;;;;;;;0.90;0.70;;;;;;;6.07;57.06;98647.77;109094;1256;75880;-27
2024/04/04 06:18:21;;;;;;;1.80;1.00;;;;;;;6.17;56.17;98654.64;109007;1256;77406;-27
2024/04/04 06:20:49;;;;;;;0.80;0.70;;;;;;;6.21;57.32;98659.25;109104;1256;71691;-27
2024/04/04 06:23:16;;;;;;;1.20;1.00;;;;;;;6.21;56.02;98668.87;109046;1256;59324;-27
2024/04/04 06:25:44;;;;;;;1.00;0.80;;;;;;;6.21;56.87;98670.98;109129;1256;58719;-27
2024/04/04 06:28:11;;;;;;;1.30;0.80;;;;;;;6.04;57.17;98673.83;109041;1256;75870;-27
2024/04/04 06:30:39;;;;;;;1.40;0.80;;;;;;;6.18;57.48;98673.85;109175;1256;75555;-27
2024/04/04 06:33:07;;;;;;;1.10;1.00;;;;;;;6.23;57.42;98678.58;109105;1256;74120;-27
2024/04/04 06:35:34;;;;;;;0.40;0.40;;;;;;;6.36;56.49;98673.55;109066;1256;60818;-27
2024/04/04 06:38:02;;;;;;;0.50;0.50;;;;;;;6.40;56.43;98677.55;109061;1256;62330;-27
2024/04/04 06:40:32;;;;;;;1.10;0.70;;;;;;;6.61;56.12;98678.69;109053;1256;76335;-27
2024/04/04 06:42:59;;;;;;;0.60;0.60;;;;;;;6.21;57.15;98678.34;109097;1256;74734;-27
2024/04/04 06:45:27;;;;;;;0.70;0.60;;;;;;;6.18;56.85;98678.90;109039;1256;74602;-27
2024/04/04 06:47:57;;;;;;;0.90;0.60;;;;;;;6.45;56.39;98680.48;109007;1256;61469;-27
2024/04/04 06:50:25;;;;;;;0.80;0.80;;;;;;;6.70;55.69;98677.55;108972;1256;59490;-27
2024/04/04 06:52:53;;;;;;;1.00;0.80;;;;;;;6.88;55.47;98684.20;109014;1256;76344;-27
2024/04/04 06:55:20;;;;;;;0.60;0.50;;;;;;;6.78;55.03;98692.83;109021;1256;76375;-27
2024/04/04 06:57:48;;;;;;;2.30;1.00;;;;;;;6.55;55.61;98694.12;109077;1256;74616;-27
2024/04/04 07:00:16;;;;;;;0.60;0.60;;;;;;;6.60;55.98;98694.25;108991;1256;60256;-27
2024/04/04 07:02:44;;;;;;;1.20;0.70;;;;;;;6.77;55.63;98694.44;109110;1257;61182;-27
2024/04/04 07:05:11;;;;;;;0.80;0.70;;;;;;;6.67;55.66;98693.58;108965;1259;76170;-27
2024/04/04 07:07:39;;;;;;;1.40;1.00;;;;;;;6.74;56.38;98689.34;108978;1257;76217;-27
2024/04/04 07:10:07;;;;;;;1.00;0.70;;;;;;;6.68;55.66;98690.62;108989;1257;73738;-27
2024/04/04 07:12:35;;;;;;;0.40;0.40;;;;;;;7.06;55.02;98691.52;108898;1258;60395;-27
2024/04/04 07:15:02;;;;;;;1.10;1.00;;;;;;;7.19;54.52;98691.66;109013;1259;62073;-27
2024/04/04 07:17:30;;;;;;;1.10;0.90;;;;;;;6.99;54.88;98693.21;108939;1257;76654;-28
2024/04/04 07:19:58;;;;;;;1.40;0.90;;;;;;;7.12;55.57;98692.17;108960;1257;76284;-27
2024/04/04 07:22:26;;;;;;;1.70;0.90;;;;;;;7.13;55.28;98689.52;108920;1257;74610;-28
2024/04/04 07:24:53;;;;;;;1.20;0.90;;;;;;;6.88;55.43;98693.50;108962;1259;61721;-27
2024/04/04 07:27:21;;;;;;;1.20;0.80;;;;;;;6.78;55.54;98691.99;108968;1258;60079;-27
2024/04/04 07:29:48;;;;;;;1.40;1.10;;;;;;;7.12;54.59;98695.10;108940;1257;76885;-28
2024/04/04 07:32:16;;;;;;;1.00;0.80;;;;;;;7.27;54.71;98694.34;109018;1259;75586;-28
2024/04/04 07:34:44;;;;;;;1.20;0.70;;;;;;;7.43;54.69;98698.35;108929;1258;73489;-27
2024/04/04 07:37:11;;;;;;;0.80;0.70;;;;;;;7.40;54.81;98695.95;108940;1258;61143;-27
2024/04/04 07:39:39;;;;;;;1.00;0.90;;;;;;;7.62;54.44;98697.33;108968;1257;61926;-27
2024/04/04 07:42:06;;;;;;;1.10;1.00;;;;;;;7.92;53.37;98696.64;108943;1258;74171;-27
2024/04/04 07:44:36;;;;;;;1.30;1.20;;;;;;;7.74;54.14;98694.86;109056;1258;75324;-28
2024/04/04 07:47:03;;;;;;;1.60;1.00;;;;;;;7.92;54.55;98691.76;108996;1258;76259;-28
2024/04/04 07:49:31;;;;;;;1.70;1.10;;;;;;;8.54;53.13;98692.77;109073;1256;61263;-28
2024/04/04 07:51:59;;;;;;;1.50;1.30;;;;;;;8.94;52.26;98688.80;109238;1256;62368;-27
2024/04/04 07:54:26;;;;;;;2.00;1.10;;;;;;;9.04;52.78;98689.48;109183;1260;76918;-27
2024/04/04 07:56:54;;;;;;;1.10;1.00;;;;;;;9.25;51.51;98690.30;109113;1256;77956;-28
2024/04/04 08:02:26;;;;;;;1.40;1.10;;;;;;;9.60;51.03;98694.15;108658;1262;62310;-27
2024/04/04 08:04:54;;;;;;;1.00;0.90;;;;;;;9.26;51.17;98696.02;109019;1256;62401;-27
2024/04/04 08:07:21;;;;;;;1.30;1.10;;;;;;;9.40;51.17;98696.81;109045;1263;77033;-28
2024/04/04 08:09:49;;;;;;;2.10;1.00;;;;;;;9.74;50.42;98699.42;109146;1256;75268;-27
2024/04/04 08:12:17;;;;;;;2.00;1.70;;;;;;;9.61;50.83;98707.39;109049;1256;74782;-28
2024/04/04 08:14:44;;;;;;;1.30;1.10;;;;;;;9.48;51.55;98710.39;109159;1258;62427;-27
2024/04/04 08:17:12;;;;;;;2.50;1.30;;;;;;;9.25;52.12;98711.23;109102;1256;59841;-27
2024/04/04 08:19:40;;;;;;;1.80;1.20;;;;;;;9.98;50.99;98706.96;109051;1256;76550;-27
2024/04/04 08:22:10;;;;;;;2.00;1.30;;;;;;;10.28;50.16;98708.77;109046;1256;76227;-27
2024/04/04 08:24:38;;;;;;;1.60;1.30;;;;;;;10.81;49.42;98705.11;109103;1256;74282;-28
2024/04/04 08:27:05;;;;;;;1.40;1.10;;;;;;;10.56;50.53;98703.95;109148;1256;59816;-28
2024/04/04 08:29:33;;;;;;;2.20;1.40;;;;;;;11.10;49.89;98708.34;109045;1256;60139;-28
2024/04/04 08:32:02;;;;;;;2.10;1.40;;;;;;;10.55;48.94;98702.79;109158;1256;74838;-28
2024/04/04 08:34:32;;;;;;;1.70;1.40;;;;;;;10.78;49.63;98706.42;109075;1256;75738;-28
2024/04/04 08:36:59;;;;;;;1.40;1.30;;;;;;;11.19;48.50;98705.13;109074;1255;72168;-28
2024/04/04 08:39:27;;;;;;;2.60;2.30;;;;;;;10.86;49.78;98702.09;109139;1256;61827;-28
2024/04/04 08:41:55;;;;;;;2.10;1.60;;;;;;;10.87;49.02;98692.66;109134;1257;60037;-28
2024/04/04 08:44:23;;;;;;;1.90;1.40;;;;;;;11.04;49.09;98692.30;109056;1256;77023;-28
2024/04/04 08:46:51;;;;;;;3.10;1.40;;;;;;;11.56;47.87;98692.02;109073;1256;76375;-29
2024/04/04 08:49:19;;;;;;;2.40;1.80;;;;;;;11.81;46.77;98692.59;108995;1259;74048;-28
2024/04/04 08:51:48;;;;;;;1.70;1.40;;;;;;;11.76;47.77;98693.49;108979;1260;62192;-28
2024/04/04 08:54:17;;;;;;;1.40;1.10;;;;;;;12.02;47.07;98692.52;109057;1256;62110;-28
2024/04/04 08:56:45;;;;;;;2.20;1.30;;;;;;;11.79;47.26;98689.05;109046;1256;75404;-28
2024/04/04 08:59:13;;;;;;;3.10;1.60;;;;;;;12.38;45.41;98695.28;109051;1256;77999;-28
2024/04/04 09:01:40;;;;;;;3.70;1.60;;;;;;;12.73;44.92;98696.67;109024;1261;74640;-28
2024/04/04 09:04:08;;;;;;;1.50;1.10;;;;;;;12.74;45.87;98695.54;109013;1256;62485;-28
2024/04/04 09:06:37;;;;;;;2.20;1.20;;;;;;;12.39;46.72;98695.06;109040;1256;60820;-28
2024/04/04 09:09:07;;;;;;;1.60;1.40;;;;;;;12.54;46.66;98700.75;109033;1256;76659;-28
2024/04/04 09:11:35;;;;;;;3.80;1.40;;;;;;;13.19;43.91;98697.52;109059;1256;76278;-28
2024/04/04 09:14:09;;;;;;;1.50;1.00;;;;;;;13.43;43.67;98695.09;108998;1256;74279;-28
2024/04/04 09:16:40;;;;;;;2.60;1.20;;;;;;;13.54;43.43;98693.40;109033;1256;61465;-28
2024/04/04 09:19:18;;;;;;;2.20;1.20;;;;;;;13.06;44.70;98688.30;108957;1256;62415;-28
2024/04/04 09:21:46;;;;;;;1.70;1.20;;;;;;;13.20;44.16;98693.64;109040;1257;76852;-28
2024/04/04 09:24:18;;;;;;;1.40;1.10;;;;;;;13.36;42.91;98691.33;109059;1256;75574;-28
2024/04/04 09:26:46;;;;;;;2.00;1.00;;;;;;;13.36;43.51;98694.48;108901;1256;71378;-28
2024/04/04 09:29:14;;;;;;;1.50;1.20;;;;;;;12.50;45.36;98689.67;109024;1256;60487;-28
2024/04/04 09:31:43;;;;;;;1.30;1.00;;;;;;;13.14;44.61;98686.71;108977;1256;60887;-28
2024/04/04 09:34:10;;;;;;;1.80;0.80;;;;;;;12.92;44.66;98687.91;109056;1256;75063;-28
2024/04/04 09:36:39;;;;;;;1.90;1.30;;;;;;;13.54;43.57;98688.17;109056;1256;74009;-28
2024/04/04 09:39:16;;;;;;;2.80;1.10;;;;;;;13.93;43.14;98687.67;109126;1256;74171;-28
2024/04/04 09:41:44;;;;;;;3.60;1.10;;;;;;;14.23;42.63;98682.84;109003;1257;63204;-28
2024/04/04 09:44:13;;;;;;;2.40;1.00;;;;;;;14.18;41.40;98688.10;109030;1256;59718;-28
2024/04/04 09:46:40;;;;;;;2.40;1.00;;;;;;;13.35;43.27;98687.73;109013;1256;77371;-28
2024/04/04 09:49:08;;;;;;;0.90;0.60;;;;;;;14.47;41.57;98679.23;108962;1256;78005;-28
2024/04/04 09:51:37;;;;;;;1.40;1.10;;;;;;;14.79;40.03;98681.33;108954;1256;74130;-28
2024/04/04 09:54:04;;;;;;;1.40;1.20;;;;;;;14.55;40.89;98685.22;108944;1257;60056;-28
2024/04/04 09:56:33;;;;;;;1.40;1.00;;;;;;;14.85;40.33;98684.81;109020;1256;62319;-28
2024/04/04 09:59:01;;;;;;;2.10;1.20;;;;;;;15.22;39.46;98684.48;108958;1256;74531;-28
2024/04/04 10:01:29;;;;;;;1.90;1.20;;;;;;;15.57;39.66;98686.55;109026;1256;75798;-28
2024/04/04 10:03:59;;;;;;;1.40;1.00;;;;;;;15.32;39.51;98684.15;109048;1257;74424;-29
2024/04/04 10:06:36;;;;;;;1.70;1.10;;;;;;;15.03;41.08;98686.38;108893;1257;61155;-28
2024/04/04 10:09:23;;;;;;;2.50;1.20;;;;;;;15.55;39.67;98681.17;108992;1259;60199;-28
2024/04/04 10:11:53;;;;;;;1.70;1.30;;;;;;;15.43;40.01;98673.77;108927;1257;74839;-28
2024/04/04 10:14:23;;;;;;;1.60;1.20;;;;;;;14.97;40.63;98676.70;108996;1257;74951;-29
2024/04/04 10:16:54;;;;;;;1.90;1.10;;;;;;;15.46;40.16;98672.00;108983;1257;76287;-28
2024/04/04 10:19:32;;;;;;;1.70;0.90;;;;;;;14.77;40.46;98674.39;108848;1258;59747;-28
2024/04/04 10:22:02;;;;;;;1.10;0.90;;;;;;;15.49;39.04;98671.31;109005;1257;61419;-28
2024/04/04 10:24:32;;;;;;;1.30;1.10;;;;;;;15.65;38.99;98680.98;108906;1257;74962;-28
2024/04/04 10:27:03;;;;;;;1.70;1.30;;;;;;;15.81;39.13;98669.65;109005;1258;76208;-29
2024/04/04 10:29:34;;;;;;;1.40;0.70;;;;;;;15.55;39.61;98675.38;108995;1257;73744;-28
2024/04/04 10:32:12;;;;;;;1.80;0.80;;;;;;;15.19;39.73;98679.61;108996;1258;61190;-28
2024/04/04 10:34:41;;;;;;;;;;;;;;;14.71;41.79;98678.11;109054;1257;62361;-28
2024/04/04 10:37:16;;;;;;;4.70;1.50;;;;;;;15.52;40.83;98677.17;109071;1257;76960;-28
2024/04/04 10:39:49;;;;;;;1.70;1.10;;;;;;;16.07;38.26;98673.36;108940;1257;76546;-28
2024/04/04 10:42:25;;;;;;;4.60;2.10;;;;;;;15.91;39.22;98674.70;109007;1258;75783;-28
2024/04/04 10:44:57;;;;;;;2.30;1.20;;;;;;;15.80;39.80;98673.49;108985;1256;61496;-28
2024/04/04 10:47:29;;;;;;;1.00;0.70;;;;;;;16.17;37.88;98669.73;108953;1257;62367;-28
2024/04/04 10:49:59;;;;;;;2.20;0.70;;;;;;;15.61;38.51;98671.58;108994;1257;75644;-28
2024/04/04 10:52:30;;;;;;;1.00;0.70;;;;;;;15.24;39.06;98672.77;109007;1257;76880;-28
2024/04/04 10:55:00;;;;;;;3.00;0.70;;;;;;;15.51;38.41;98666.73;108924;1257;76294;-28
2024/04/04 10:57:31;;;;;;;0.70;0.70;;;;;;;15.94;37.75;98677.66;108848;1261;59931;-28
2024/04/04 11:00:13;;;;;;;2.50;0.80;;;;;;;15.81;38.72;98675.09;109040;1257;62186;-28
2024/04/04 11:10:23;;;;;;;1.80;1.20;;;;;;;15.54;38.28;98678.15;102578;1292;600077;-26
2024/04/04 11:12:51;;;;;;;1.90;1.20;;;;;;;15.72;38.22;98679.58;104870;1269;62577;-27
2024/04/04 11:15:19;;;;;;;0.90;0.70;;;;;;;15.43;39.17;98670.73;104831;1271;62417;-27
2024/04/04 11:17:47;;;;;;;1.40;1.00;;;;;;;15.64;38.90;98675.52;104816;1274;75787;-27
2024/04/04 11:20:16;;;;;;;2.50;0.90;;;;;;;15.94;37.96;98681.08;104798;1266;77094;-27
2024/04/04 11:22:44;;;;;;;1.50;0.60;;;;;;;16.19;37.85;98676.80;104874;1266;74399;-27
2024/04/04 11:25:12;;;;;;;1.10;0.60;;;;;;;16.34;38.25;98666.55;101317;1269;61227;-27
2024/04/04 11:27:40;;;;;;;1.50;0.80;;;;;;;16.14;38.43;98675.68;105103;1262;77046;-26
2024/04/04 11:30:08;;;;;;;1.00;0.90;;;;;;;15.83;39.38;98674.89;104757;1263;77122;-27
2024/04/04 11:32:36;;;;;;;0.60;0.50;;;;;;;15.90;38.96;98675.48;104895;1266;75225;-26
2024/04/04 11:35:05;;;;;;;1.00;0.60;;;;;;;15.66;39.89;98683.02;104873;1271;62883;-27
2024/04/04 11:37:32;;;;;;;1.00;0.60;;;;;;;15.24;41.20;98682.18;104816;1271;62199;-27
2024/04/04 11:40:00;;;;;;;0.70;0.50;;;;;;;16.04;39.24;98679.41;104792;1267;72850;-27
2024/04/04 11:42:28;;;;;;;1.20;0.70;;;;;;;15.64;40.72;98683.25;104839;1263;74603;-27
2024/04/04 11:44:55;;;;;;;2.80;0.90;;;;;;;16.07;40.15;98685.04;104793;1266;73313;-27
2024/04/04 11:47:23;;;;;;;0.50;0.50;;;;;;;16.34;39.22;98684.21;104995;1263;61231;-26
2024/04/04 11:49:50;;;;;;;0.90;0.70;;;;;;;16.08;38.31;98684.23;105126;1268;61046;-27
2024/04/04 11:52:18;;;;;;;0.90;0.30;;;;;;;15.39;39.68;98693.08;105058;1263;73892;-27
2024/04/04 11:54:47;;;;;;;0.60;0.50;;;;;;;15.36;40.16;98688.64;104837;1271;74474;-27
2024/04/04 11:57:15;;;;;;;0.40;0.30;;;;;;;15.55;39.97;98693.09;105067;1263;71953;-27
2024/04/04 11:59:43;;;;;;;0.60;0.40;;;;;;;15.35;40.06;98688.38;105034;1262;61152;-27
2024/04/04 12:02:10;;;;;;;1.20;0.50;;;;;;;15.27;40.79;98687.09;105038;1266;61026;-26
2024/04/04 12:04:41;;;;;;;2.00;0.40;;;;;;;15.28;40.26;98684.20;104893;1271;73362;-26
2024/04/04 12:07:09;;;;;;;0.80;0.70;;;;;;;15.37;39.62;98680.14;104740;1270;73178;-27
2024/04/04 12:09:36;;;;;;;1.00;0.70;;;;;;;15.18;39.94;98684.58;104712;1269;71616;-26
2024/04/04 12:12:05;;;;;;;0.60;0.50;;;;;;;14.68;41.69;98685.05;104771;1266;61070;-26
2024/04/04 12:14:32;;;;;;;2.30;1.10;;;;;;;15.39;40.95;98681.23;104816;1265;61054;-27
2024/04/04 12:17:01;;;;;;;2.80;0.80;;;;;;;15.30;40.31;98679.85;104936;1265;74457;-27
2024/04/04 12:19:29;;;;;;;0.90;0.70;;;;;;;15.26;40.03;98676.55;104602;1266;75034;-27
2024/04/04 12:21:57;;;;;;;4.90;1.20;;;;;;;15.50;40.50;98677.55;104857;1270;72729;-27
2024/04/04 12:24:24;;;;;;;1.40;0.90;;;;;;;15.56;40.83;98675.36;104817;1266;61121;-27
2024/04/04 12:26:53;;;;;;;0.90;0.70;;;;;;;15.81;38.54;98667.91;105071;1268;61187;-27